sensor_id;sensor_type;location;lat;lon;timestamp;pressure;altitude;pressure_sealevel;temperature;humidity
65718;BME280;52445;52.466;-1.016;2023-08-24T00:01:58;100169.44;;;19.86;60.39
65718;BME280;52445;52.466;-1.016;2023-08-24T00:04:25;100179.16;;;19.84;60.67
65718;BME280;52445;52.466;-1.016;2023-08-24T00:06:52;100181.00;;;19.82;60.76
65718;BME280;52445;52.466;-1.016;2023-08-24T00:09:19;100183.75;;;19.78;60.75
65718;BME280;52445;52.466;-1.016;2023-08-24T00:11:46;100168.03;;;19.77;61.05
65718;BME280;52445;52.466;-1.016;2023-08-24T00:14:13;100159.28;;;19.76;60.95
65718;BME280;52445;52.466;-1.016;2023-08-24T00:16:40;100162.91;;;19.74;61.07
65718;BME280;52445;52.466;-1.016;2023-08-24T00:19:07;100160.38;;;19.71;60.85
65718;BME280;52445;52.466;-1.016;2023-08-24T00:21:35;100159.66;;;19.67;60.82
65718;BME280;52445;52.466;-1.016;2023-08-24T00:24:04;100154.50;;;19.64;60.74
65718;BME280;52445;52.466;-1.016;2023-08-24T00:26:33;100148.53;;;19.60;60.87
65718;BME280;52445;52.466;-1.016;2023-08-24T00:29:01;100141.59;;;19.58;61.22
65718;BME280;52445;52.466;-1.016;2023-08-24T00:31:30;100133.00;;;19.54;61.48
65718;BME280;52445;52.466;-1.016;2023-08-24T00:34:00;100143.56;;;19.52;61.78
65718;BME280;52445;52.466;-1.016;2023-08-24T00:36:28;100142.78;;;19.50;61.49
65718;BME280;52445;52.466;-1.016;2023-08-24T00:38:56;100139.47;;;19.45;61.66
65718;BME280;52445;52.466;-1.016;2023-08-24T00:41:25;100143.13;;;19.41;61.46
65718;BME280;52445;52.466;-1.016;2023-08-24T00:43:53;100135.41;;;19.36;61.46
65718;BME280;52445;52.466;-1.016;2023-08-24T00:46:22;100139.94;;;19.33;61.70
65718;BME280;52445;52.466;-1.016;2023-08-24T00:48:51;100140.97;;;19.29;61.72
65718;BME280;52445;52.466;-1.016;2023-08-24T00:51:19;100152.41;;;19.27;61.64
65718;BME280;52445;52.466;-1.016;2023-08-24T00:53:48;100148.13;;;19.25;61.72
65718;BME280;52445;52.466;-1.016;2023-08-24T00:56:16;100135.03;;;19.23;62.27
65718;BME280;52445;52.466;-1.016;2023-08-24T00:58:48;100142.13;;;19.21;62.23
65718;BME280;52445;52.466;-1.016;2023-08-24T01:01:18;100143.03;;;19.20;62.10
65718;BME280;52445;52.466;-1.016;2023-08-24T01:03:46;100151.00;;;19.17;62.34
65718;BME280;52445;52.466;-1.016;2023-08-24T01:06:13;100149.31;;;19.16;62.49
65718;BME280;52445;52.466;-1.016;2023-08-24T01:08:40;100145.88;;;19.14;62.98
65718;BME280;52445;52.466;-1.016;2023-08-24T01:14:23;100134.69;;;19.09;63.03
65718;BME280;52445;52.466;-1.016;2023-08-24T01:16:58;100137.16;;;19.13;62.73
65718;BME280;52445;52.466;-1.016;2023-08-24T01:22:10;100123.06;;;19.16;62.75
65718;BME280;52445;52.466;-1.016;2023-08-24T01:24:47;100119.63;;;19.14;62.99
65718;BME280;52445;52.466;-1.016;2023-08-24T01:27:19;100123.84;;;19.18;63.38
65718;BME280;52445;52.466;-1.016;2023-08-24T01:29:47;100126.47;;;19.18;62.92
65718;BME280;52445;52.466;-1.016;2023-08-24T01:32:15;100123.78;;;19.20;62.94
65718;BME280;52445;52.466;-1.016;2023-08-24T01:34:42;100119.28;;;19.23;63.23
65718;BME280;52445;52.466;-1.016;2023-08-24T01:37:09;100133.22;;;19.25;63.20
65718;BME280;52445;52.466;-1.016;2023-08-24T01:39:44;100124.41;;;19.26;63.02
65718;BME280;52445;52.466;-1.016;2023-08-24T01:42:19;100122.59;;;19.29;63.50
65718;BME280;52445;52.466;-1.016;2023-08-24T01:44:50;100120.88;;;19.27;63.46
65718;BME280;52445;52.466;-1.016;2023-08-24T01:47:19;100113.06;;;19.26;63.51
65718;BME280;52445;52.466;-1.016;2023-08-24T01:49:48;100102.69;;;19.23;63.25
65718;BME280;52445;52.466;-1.016;2023-08-24T01:52:15;100104.38;;;19.24;63.30
65718;BME280;52445;52.466;-1.016;2023-08-24T01:54:42;100101.69;;;19.25;63.40
65718;BME280;52445;52.466;-1.016;2023-08-24T01:57:10;100103.41;;;19.26;63.73
65718;BME280;52445;52.466;-1.016;2023-08-24T01:59:37;100102.50;;;19.27;63.66
65718;BME280;52445;52.466;-1.016;2023-08-24T02:02:04;100085.84;;;19.29;63.52
65718;BME280;52445;52.466;-1.016;2023-08-24T02:04:31;100086.69;;;19.29;63.25
65718;BME280;52445;52.466;-1.016;2023-08-24T02:06:58;100078.72;;;19.31;63.45
65718;BME280;52445;52.466;-1.016;2023-08-24T02:09:25;100073.47;;;19.31;63.76
65718;BME280;52445;52.466;-1.016;2023-08-24T02:11:52;100077.03;;;19.30;63.27
65718;BME280;52445;52.466;-1.016;2023-08-24T02:14:19;100078.00;;;19.27;63.38
65718;BME280;52445;52.466;-1.016;2023-08-24T02:16:46;100075.44;;;19.25;64.05
65718;BME280;52445;52.466;-1.016;2023-08-24T02:19:13;100064.09;;;19.25;63.72
65718;BME280;52445;52.466;-1.016;2023-08-24T02:21:41;100065.06;;;19.22;63.60
65718;BME280;52445;52.466;-1.016;2023-08-24T02:24:08;100058.22;;;19.18;63.37
65718;BME280;52445;52.466;-1.016;2023-08-24T02:26:35;100061.88;;;19.14;63.57
65718;BME280;52445;52.466;-1.016;2023-08-24T02:29:02;100056.72;;;19.11;63.85
65718;BME280;52445;52.466;-1.016;2023-08-24T02:31:29;100056.88;;;19.08;63.71
65718;BME280;52445;52.466;-1.016;2023-08-24T02:33:57;100048.28;;;19.02;63.65
65718;BME280;52445;52.466;-1.016;2023-08-24T02:36:24;100048.31;;;19.01;63.94
65718;BME280;52445;52.466;-1.016;2023-08-24T02:38:51;100049.31;;;18.98;64.05
65718;BME280;52445;52.466;-1.016;2023-08-24T02:41:18;100050.22;;;18.97;64.05
65718;BME280;52445;52.466;-1.016;2023-08-24T02:43:45;100046.69;;;18.98;64.49
65718;BME280;52445;52.466;-1.016;2023-08-24T02:46:13;100044.97;;;18.97;64.17
65718;BME280;52445;52.466;-1.016;2023-08-24T02:48:39;100025.69;;;18.98;63.98
65718;BME280;52445;52.466;-1.016;2023-08-24T02:51:07;100020.44;;;18.98;64.29
65718;BME280;52445;52.466;-1.016;2023-08-24T02:53:34;100031.03;;;18.95;64.09
65718;BME280;52445;52.466;-1.016;2023-08-24T02:56:01;100036.44;;;18.92;64.19
65718;BME280;52445;52.466;-1.016;2023-08-24T02:58:28;100040.88;;;18.90;63.72
65718;BME280;52445;52.466;-1.016;2023-08-24T03:00:56;100035.63;;;18.90;63.86
65718;BME280;52445;52.466;-1.016;2023-08-24T03:03:23;100022.50;;;18.90;64.41
65718;BME280;52445;52.466;-1.016;2023-08-24T03:05:56;100008.59;;;18.88;64.35
65718;BME280;52445;52.466;-1.016;2023-08-24T03:08:23;100014.72;;;18.87;64.18
65718;BME280;52445;52.466;-1.016;2023-08-24T03:10:50;100019.22;;;18.85;64.32
65718;BME280;52445;52.466;-1.016;2023-08-24T03:13:17;100029.69;;;18.85;64.20
65718;BME280;52445;52.466;-1.016;2023-08-24T03:15:44;100018.44;;;18.81;64.43
65718;BME280;52445;52.466;-1.016;2023-08-24T03:18:12;100006.25;;;18.80;64.50
65718;BME280;52445;52.466;-1.016;2023-08-24T03:20:40;99998.44;;;18.79;64.38
65718;BME280;52445;52.466;-1.016;2023-08-24T03:23:06;100012.47;;;18.78;64.84
65718;BME280;52445;52.466;-1.016;2023-08-24T03:25:38;100012.47;;;18.78;64.50
65718;BME280;52445;52.466;-1.016;2023-08-24T03:28:06;100022.97;;;18.78;64.54
65718;BME280;52445;52.466;-1.016;2023-08-24T03:30:35;100025.59;;;18.78;64.60
65718;BME280;52445;52.466;-1.016;2023-08-24T03:33:03;100017.72;;;18.78;64.87
65718;BME280;52445;52.466;-1.016;2023-08-24T03:35:31;100007.22;;;18.78;65.00
65718;BME280;52445;52.466;-1.016;2023-08-24T03:37:58;99994.09;;;18.78;64.76
65718;BME280;52445;52.466;-1.016;2023-08-24T03:40:25;99994.94;;;18.78;64.78
65718;BME280;52445;52.466;-1.016;2023-08-24T03:42:52;99991.47;;;18.78;64.97
65718;BME280;52445;52.466;-1.016;2023-08-24T03:45:20;99987.94;;;18.79;65.03
65718;BME280;52445;52.466;-1.016;2023-08-24T03:47:48;99994.09;;;18.78;64.82
65718;BME280;52445;52.466;-1.016;2023-08-24T03:50:16;99984.53;;;18.77;65.21
65718;BME280;52445;52.466;-1.016;2023-08-24T03:52:43;99995.03;;;18.77;64.34
65718;BME280;52445;52.466;-1.016;2023-08-24T03:55:09;99995.97;;;18.74;64.64
65718;BME280;52445;52.466;-1.016;2023-08-24T03:57:36;99999.47;;;18.74;65.24
65718;BME280;52445;52.466;-1.016;2023-08-24T04:00:05;100007.34;;;18.74;65.16
65718;BME280;52445;52.466;-1.016;2023-08-24T04:02:34;100011.66;;;18.75;65.02
65718;BME280;52445;52.466;-1.016;2023-08-24T04:05:00;100012.59;;;18.74;65.17
65718;BME280;52445;52.466;-1.016;2023-08-24T04:07:27;100001.22;;;18.74;65.01
65718;BME280;52445;52.466;-1.016;2023-08-24T04:09:54;100007.34;;;18.74;65.32
65718;BME280;52445;52.466;-1.016;2023-08-24T04:12:20;99996.84;;;18.74;64.94
65718;BME280;52445;52.466;-1.016;2023-08-24T04:14:47;99994.31;;;18.71;65.11
65718;BME280;52445;52.466;-1.016;2023-08-24T04:17:14;99989.13;;;18.70;65.41
65718;BME280;52445;52.466;-1.016;2023-08-24T04:19:40;99986.56;;;18.68;65.43
65718;BME280;52445;52.466;-1.016;2023-08-24T04:22:07;99986.72;;;18.65;65.24
65718;BME280;52445;52.466;-1.016;2023-08-24T04:24:34;99981.56;;;18.62;65.17
65718;BME280;52445;52.466;-1.016;2023-08-24T04:27:00;99972.88;;;18.60;64.88
65718;BME280;52445;52.466;-1.016;2023-08-24T04:29:27;99969.50;;;18.58;64.70
65718;BME280;52445;52.466;-1.016;2023-08-24T04:31:54;99962.50;;;18.57;64.81
65718;BME280;52445;52.466;-1.016;2023-08-24T04:34:29;99959.09;;;18.55;65.44
65718;BME280;52445;52.466;-1.016;2023-08-24T04:36:56;99954.72;;;18.55;65.25
65718;BME280;52445;52.466;-1.016;2023-08-24T04:39:22;99957.41;;;18.54;65.36
65718;BME280;52445;52.466;-1.016;2023-08-24T04:41:49;99964.34;;;18.55;65.42
65718;BME280;52445;52.466;-1.016;2023-08-24T04:44:16;99966.06;;;18.56;65.59
65718;BME280;52445;52.466;-1.016;2023-08-24T04:46:42;99956.53;;;18.53;64.96
65718;BME280;52445;52.466;-1.016;2023-08-24T04:49:09;99945.19;;;18.53;65.39
65718;BME280;52445;52.466;-1.016;2023-08-24T04:51:36;99942.66;;;18.51;65.36
65718;BME280;52445;52.466;-1.016;2023-08-24T04:54:02;99949.66;;;18.50;65.67
65718;BME280;52445;52.466;-1.016;2023-08-24T04:56:29;99942.69;;;18.49;65.59
65718;BME280;52445;52.466;-1.016;2023-08-24T04:58:57;99951.41;;;18.50;65.49
65718;BME280;52445;52.466;-1.016;2023-08-24T05:01:24;99952.38;;;18.47;65.77
65718;BME280;52445;52.466;-1.016;2023-08-24T05:03:53;99955.91;;;18.46;65.68
65718;BME280;52445;52.466;-1.016;2023-08-24T05:06:20;99956.03;;;18.43;65.62
65718;BME280;52445;52.466;-1.016;2023-08-24T05:08:47;99943.84;;;18.42;65.45
65718;BME280;52445;52.466;-1.016;2023-08-24T05:11:17;99946.47;;;18.42;66.08
65718;BME280;52445;52.466;-1.016;2023-08-24T05:13:45;99949.13;;;18.41;65.50
65718;BME280;52445;52.466;-1.016;2023-08-24T05:16:13;99950.88;;;18.40;65.57
65718;BME280;52445;52.466;-1.016;2023-08-24T05:18:40;99948.31;;;18.39;66.20
65718;BME280;52445;52.466;-1.016;2023-08-24T05:21:07;99945.75;;;18.37;66.38
65718;BME280;52445;52.466;-1.016;2023-08-24T05:23:34;99951.13;;;18.34;65.77
65718;BME280;52445;52.466;-1.016;2023-08-24T05:26:02;99954.66;;;18.33;65.53
65718;BME280;52445;52.466;-1.016;2023-08-24T05:28:30;99948.66;;;18.29;66.13
65718;BME280;52445;52.466;-1.016;2023-08-24T05:30:57;99939.94;;;18.29;65.79
65718;BME280;52445;52.466;-1.016;2023-08-24T05:33:27;99942.56;;;18.29;66.08
65718;BME280;52445;52.466;-1.016;2023-08-24T05:35:57;99940.75;;;18.31;66.56
65718;BME280;52445;52.466;-1.016;2023-08-24T05:38:25;99944.16;;;18.33;65.87
65718;BME280;52445;52.466;-1.016;2023-08-24T05:40:52;99947.59;;;18.35;66.15
65718;BME280;52445;52.466;-1.016;2023-08-24T05:43:19;99947.47;;;18.38;65.59
65718;BME280;52445;52.466;-1.016;2023-08-24T05:45:47;99933.41;;;18.41;65.95
65718;BME280;52445;52.466;-1.016;2023-08-24T05:48:14;99931.50;;;18.44;66.03
65718;BME280;52445;52.466;-1.016;2023-08-24T05:50:46;99923.59;;;18.46;65.94
65718;BME280;52445;52.466;-1.016;2023-08-24T05:53:13;99931.28;;;18.50;66.34
65718;BME280;52445;52.466;-1.016;2023-08-24T05:55:40;99931.19;;;18.54;65.89
65718;BME280;52445;52.466;-1.016;2023-08-24T05:58:08;99926.72;;;18.56;65.96
65718;BME280;52445;52.466;-1.016;2023-08-24T06:00:35;99930.97;;;18.58;66.43
65718;BME280;52445;52.466;-1.016;2023-08-24T06:03:03;99925.56;;;18.63;66.30
65718;BME280;52445;52.466;-1.016;2023-08-24T06:05:31;99928.75;;;18.71;66.25
65718;BME280;52445;52.466;-1.016;2023-08-24T06:07:58;99928.53;;;18.78;66.33
65718;BME280;52445;52.466;-1.016;2023-08-24T06:10:25;99926.44;;;18.86;66.42
65718;BME280;52445;52.466;-1.016;2023-08-24T06:12:53;99926.06;;;18.95;66.57
65718;BME280;52445;52.466;-1.016;2023-08-24T06:15:20;99926.69;;;19.02;66.36
65718;BME280;52445;52.466;-1.016;2023-08-24T06:17:50;99927.41;;;19.06;66.11
65718;BME280;52445;52.466;-1.016;2023-08-24T06:20:19;99923.72;;;19.11;65.99
65718;BME280;52445;52.466;-1.016;2023-08-24T06:22:45;99918.31;;;19.16;66.58
65718;BME280;52445;52.466;-1.016;2023-08-24T06:25:12;99919.88;;;19.20;66.25
65718;BME280;52445;52.466;-1.016;2023-08-24T06:27:39;99909.09;;;19.26;65.96
65718;BME280;52445;52.466;-1.016;2023-08-24T06:30:07;99912.41;;;19.32;66.15
65718;BME280;52445;52.466;-1.016;2023-08-24T06:32:34;99910.44;;;19.37;66.30
65718;BME280;52445;52.466;-1.016;2023-08-24T06:35:01;99898.81;;;19.43;66.20
65718;BME280;52445;52.466;-1.016;2023-08-24T06:37:28;99892.47;;;19.48;65.58
65718;BME280;52445;52.466;-1.016;2023-08-24T06:39:55;99899.28;;;19.52;66.01
65718;BME280;52445;52.466;-1.016;2023-08-24T06:42:22;99885.22;;;19.53;66.16
65718;BME280;52445;52.466;-1.016;2023-08-24T06:44:48;99893.03;;;19.55;66.10
65718;BME280;52445;52.466;-1.016;2023-08-24T06:47:16;99893.78;;;19.59;65.92
65718;BME280;52445;52.466;-1.016;2023-08-24T06:49:43;99893.38;;;19.68;66.14
65718;BME280;52445;52.466;-1.016;2023-08-24T06:52:10;99896.13;;;19.86;66.12
65718;BME280;52445;52.466;-1.016;2023-08-24T06:54:38;99886.53;;;20.06;65.94
65718;BME280;52445;52.466;-1.016;2023-08-24T06:57:06;99877.59;;;20.48;66.40
65718;BME280;52445;52.466;-1.016;2023-08-24T06:59:33;99879.59;;;21.17;65.92
65718;BME280;52445;52.466;-1.016;2023-08-24T07:02:00;99885.34;;;21.78;64.81
65718;BME280;52445;52.466;-1.016;2023-08-24T07:04:27;99886.13;;;22.30;63.83
65718;BME280;52445;52.466;-1.016;2023-08-24T07:06:54;99883.22;;;22.83;63.58
65718;BME280;52445;52.466;-1.016;2023-08-24T07:09:22;99886.34;;;23.37;61.94
65718;BME280;52445;52.466;-1.016;2023-08-24T07:11:49;99874.16;;;23.65;60.85
65718;BME280;52445;52.466;-1.016;2023-08-24T07:14:16;99874.97;;;23.66;60.89
65718;BME280;52445;52.466;-1.016;2023-08-24T07:16:43;99871.47;;;23.51;60.84
65718;BME280;52445;52.466;-1.016;2023-08-24T07:19:10;99871.50;;;23.34;60.59
65718;BME280;52445;52.466;-1.016;2023-08-24T07:21:39;99863.19;;;23.26;60.90
65718;BME280;52445;52.466;-1.016;2023-08-24T07:24:06;99872.53;;;23.48;60.45
65718;BME280;52445;52.466;-1.016;2023-08-24T07:26:33;99871.13;;;24.00;60.66
65718;BME280;52445;52.466;-1.016;2023-08-24T07:29:00;99848.72;;;24.35;59.76
65718;BME280;52445;52.466;-1.016;2023-08-24T07:31:27;99838.69;;;24.41;58.65
65718;BME280;52445;52.466;-1.016;2023-08-24T07:33:54;99841.34;;;24.41;58.84
65718;BME280;52445;52.466;-1.016;2023-08-24T07:36:21;99832.53;;;24.40;59.12
65718;BME280;52445;52.466;-1.016;2023-08-24T07:38:48;99834.78;;;24.74;58.27
65718;BME280;52445;52.466;-1.016;2023-08-24T07:41:14;99827.19;;;25.36;57.94
65718;BME280;52445;52.466;-1.016;2023-08-24T07:43:43;99816.88;;;25.96;56.79
65718;BME280;52445;52.466;-1.016;2023-08-24T07:46:10;99818.75;;;26.44;55.34
65718;BME280;52445;52.466;-1.016;2023-08-24T07:48:37;99817.28;;;26.65;54.73
65718;BME280;52445;52.466;-1.016;2023-08-24T07:51:04;99829.31;;;26.82;53.45
65718;BME280;52445;52.466;-1.016;2023-08-24T07:53:31;99820.94;;;27.00;53.34
65718;BME280;52445;52.466;-1.016;2023-08-24T07:56:00;99807.19;;;27.06;53.78
65718;BME280;52445;52.466;-1.016;2023-08-24T07:58:29;99806.50;;;27.27;52.67
65718;BME280;52445;52.466;-1.016;2023-08-24T08:00:59;99802.19;;;27.60;52.47
65718;BME280;52445;52.466;-1.016;2023-08-24T08:03:26;99803.88;;;27.61;50.94
65718;BME280;52445;52.466;-1.016;2023-08-24T08:05:53;99804.84;;;27.49;51.57
65718;BME280;52445;52.466;-1.016;2023-08-24T08:08:22;99801.81;;;27.53;50.90
65718;BME280;52445;52.466;-1.016;2023-08-24T08:10:57;99797.56;;;27.62;51.04
65718;BME280;52445;52.466;-1.016;2023-08-24T08:13:25;99796.00;;;27.59;49.76
65718;BME280;52445;52.466;-1.016;2023-08-24T08:15:53;99787.31;;;27.57;50.38
65718;BME280;52445;52.466;-1.016;2023-08-24T08:18:19;99789.50;;;27.87;50.56
65718;BME280;52445;52.466;-1.016;2023-08-24T08:20:50;99786.88;;;28.19;49.81
65718;BME280;52445;52.466;-1.016;2023-08-24T08:23:17;99788.69;;;28.30;49.87
65718;BME280;52445;52.466;-1.016;2023-08-24T08:25:44;99783.50;;;28.29;48.29
65718;BME280;52445;52.466;-1.016;2023-08-24T08:28:10;99783.97;;;28.34;48.67
65718;BME280;52445;52.466;-1.016;2023-08-24T08:30:37;99780.91;;;28.39;48.35
65718;BME280;52445;52.466;-1.016;2023-08-24T08:33:04;99782.72;;;28.50;48.42
65718;BME280;52445;52.466;-1.016;2023-08-24T08:35:31;99790.38;;;28.85;48.65
65718;BME280;52445;52.466;-1.016;2023-08-24T08:37:57;99789.47;;;29.08;47.01
65718;BME280;52445;52.466;-1.016;2023-08-24T08:40:26;99783.47;;;28.94;47.76
65718;BME280;52445;52.466;-1.016;2023-08-24T08:42:59;99779.38;;;29.11;46.67
65718;BME280;52445;52.466;-1.016;2023-08-24T08:45:29;99780.75;;;29.37;45.85
65718;BME280;52445;52.466;-1.016;2023-08-24T08:48:00;99777.50;;;29.55;45.60
65718;BME280;52445;52.466;-1.016;2023-08-24T08:50:29;99778.66;;;29.62;44.99
65718;BME280;52445;52.466;-1.016;2023-08-24T08:52:58;99779.00;;;29.79;45.26
65718;BME280;52445;52.466;-1.016;2023-08-24T08:55:25;99782.69;;;29.97;44.80
65718;BME280;52445;52.466;-1.016;2023-08-24T08:57:55;99778.19;;;29.98;43.55
65718;BME280;52445;52.466;-1.016;2023-08-24T09:00:25;99779.53;;;29.72;43.70
65718;BME280;52445;52.466;-1.016;2023-08-24T09:03:00;99789.91;;;29.66;43.68
65718;BME280;52445;52.466;-1.016;2023-08-24T09:05:28;99789.09;;;29.75;43.50
65718;BME280;52445;52.466;-1.016;2023-08-24T09:07:56;99791.81;;;29.95;43.13
65718;BME280;52445;52.466;-1.016;2023-08-24T09:10:23;99805.25;;;30.24;42.46
65718;BME280;52445;52.466;-1.016;2023-08-24T09:12:50;99807.22;;;30.52;42.38
65718;BME280;52445;52.466;-1.016;2023-08-24T09:15:35;99810.34;;;30.87;42.21
65718;BME280;52445;52.466;-1.016;2023-08-24T09:18:02;99797.06;;;31.15;41.77
65718;BME280;52445;52.466;-1.016;2023-08-24T09:20:30;99796.19;;;31.34;40.73
65718;BME280;52445;52.466;-1.016;2023-08-24T09:22:58;99798.72;;;31.36;41.10
65718;BME280;52445;52.466;-1.016;2023-08-24T09:25:25;99794.16;;;31.46;39.99
65718;BME280;52445;52.466;-1.016;2023-08-24T09:28:01;99782.88;;;31.52;39.07
65718;BME280;52445;52.466;-1.016;2023-08-24T09:30:35;99784.00;;;31.60;39.91
65718;BME280;52445;52.466;-1.016;2023-08-24T09:33:04;99782.00;;;31.62;39.48
65718;BME280;52445;52.466;-1.016;2023-08-24T09:35:36;99776.06;;;31.68;39.01
65718;BME280;52445;52.466;-1.016;2023-08-24T09:38:20;99764.72;;;32.02;38.81
65718;BME280;52445;52.466;-1.016;2023-08-24T09:40:51;99759.00;;;32.34;38.45
65718;BME280;52445;52.466;-1.016;2023-08-24T09:43:19;99769.81;;;32.60;38.08
65718;BME280;52445;52.466;-1.016;2023-08-24T09:45:48;99763.41;;;32.79;37.95
65718;BME280;52445;52.466;-1.016;2023-08-24T09:48:17;99767.66;;;33.08;37.93
65718;BME280;52445;52.466;-1.016;2023-08-24T09:50:45;99770.44;;;33.25;38.17
65718;BME280;52445;52.466;-1.016;2023-08-24T09:53:17;99770.16;;;33.37;38.50
65718;BME280;52445;52.466;-1.016;2023-08-24T09:58:26;99755.66;;;33.21;37.56
65718;BME280;52445;52.466;-1.016;2023-08-24T10:00:55;99751.81;;;32.97;37.40
65718;BME280;52445;52.466;-1.016;2023-08-24T10:03:25;99747.72;;;32.66;37.63
65718;BME280;52445;52.466;-1.016;2023-08-24T10:05:55;99748.59;;;32.30;38.35
65718;BME280;52445;52.466;-1.016;2023-08-24T10:08:36;99743.22;;;31.94;38.60
65718;BME280;52445;52.466;-1.016;2023-08-24T10:11:06;99737.91;;;31.84;39.18
65718;BME280;52445;52.466;-1.016;2023-08-24T10:13:53;99733.50;;;31.93;39.34
65718;BME280;52445;52.466;-1.016;2023-08-24T10:16:26;99736.81;;;32.05;39.09
65718;BME280;52445;52.466;-1.016;2023-08-24T10:18:55;99738.50;;;32.06;39.13
65718;BME280;52445;52.466;-1.016;2023-08-24T10:21:23;99721.22;;;32.00;38.53
65718;BME280;52445;52.466;-1.016;2023-08-24T10:23:52;99730.28;;;31.89;38.48
65718;BME280;52445;52.466;-1.016;2023-08-24T10:26:20;99728.31;;;31.91;39.21
65718;BME280;52445;52.466;-1.016;2023-08-24T10:28:50;99726.84;;;31.97;38.82
65718;BME280;52445;52.466;-1.016;2023-08-24T10:31:17;99728.53;;;31.98;39.14
65718;BME280;52445;52.466;-1.016;2023-08-24T10:33:46;99737.38;;;31.80;39.24
65718;BME280;52445;52.466;-1.016;2023-08-24T10:36:15;99738.59;;;31.68;38.64
65718;BME280;52445;52.466;-1.016;2023-08-24T10:38:44;99739.75;;;31.55;39.44
65718;BME280;52445;52.466;-1.016;2023-08-24T10:41:11;99736.34;;;31.63;40.16
65718;BME280;52445;52.466;-1.016;2023-08-24T10:43:48;99730.63;;;31.76;39.19
65718;BME280;52445;52.466;-1.016;2023-08-24T10:46:16;99726.66;;;31.80;38.96
65718;BME280;52445;52.466;-1.016;2023-08-24T10:51:23;99725.28;;;31.76;37.66
65718;BME280;52445;52.466;-1.016;2023-08-24T10:56:37;99743.25;;;31.84;38.58
65718;BME280;52445;52.466;-1.016;2023-08-24T10:59:21;99740.63;;;32.02;38.64
65718;BME280;52445;52.466;-1.016;2023-08-24T11:04:27;99753.72;;;32.24;38.16
65718;BME280;52445;52.466;-1.016;2023-08-24T11:06:56;99756.25;;;32.25;38.10
65718;BME280;52445;52.466;-1.016;2023-08-24T11:09:24;99757.63;;;32.29;37.75
65718;BME280;52445;52.466;-1.016;2023-08-24T11:12:01;99756.31;;;32.34;37.85
65718;BME280;52445;52.466;-1.016;2023-08-24T11:14:30;99749.50;;;32.39;38.21
65718;BME280;52445;52.466;-1.016;2023-08-24T11:17:00;99752.03;;;32.41;37.79
65718;BME280;52445;52.466;-1.016;2023-08-24T11:19:29;99754.03;;;32.39;37.44
65718;BME280;52445;52.466;-1.016;2023-08-24T11:21:58;99749.69;;;32.38;37.21
65718;BME280;52445;52.466;-1.016;2023-08-24T11:24:26;99735.78;;;32.42;37.66
65718;BME280;52445;52.466;-1.016;2023-08-24T11:26:55;99733.22;;;32.51;37.41
65718;BME280;52445;52.466;-1.016;2023-08-24T11:29:22;99730.38;;;32.52;37.46
65718;BME280;52445;52.466;-1.016;2023-08-24T11:31:51;99725.94;;;32.43;36.40
65718;BME280;52445;52.466;-1.016;2023-08-24T11:34:18;99730.75;;;32.39;36.44
65718;BME280;52445;52.466;-1.016;2023-08-24T11:36:47;99721.19;;;32.37;36.53
65718;BME280;52445;52.466;-1.016;2023-08-24T11:39:16;99717.69;;;32.54;36.40
65718;BME280;52445;52.466;-1.016;2023-08-24T11:41:44;99730.88;;;32.74;36.71
65718;BME280;52445;52.466;-1.016;2023-08-24T11:44:11;99728.94;;;32.85;36.80
65718;BME280;52445;52.466;-1.016;2023-08-24T11:46:56;99720.09;;;32.92;36.19
65718;BME280;52445;52.466;-1.016;2023-08-24T11:49:25;99725.91;;;32.88;35.63
65718;BME280;52445;52.466;-1.016;2023-08-24T11:51:52;99721.16;;;32.73;35.50
65718;BME280;52445;52.466;-1.016;2023-08-24T11:54:19;99718.09;;;32.68;36.44
65718;BME280;52445;52.466;-1.016;2023-08-24T11:56:46;99720.16;;;32.74;36.36
65718;BME280;52445;52.466;-1.016;2023-08-24T11:59:14;99716.09;;;32.70;35.81
65718;BME280;52445;52.466;-1.016;2023-08-24T12:04:16;99709.09;;;32.32;35.39
65718;BME280;52445;52.466;-1.016;2023-08-24T12:06:42;99701.53;;;32.10;35.46
65718;BME280;52445;52.466;-1.016;2023-08-24T12:09:09;99696.81;;;32.03;35.15
65718;BME280;52445;52.466;-1.016;2023-08-24T12:11:37;99701.16;;;32.04;35.64
65718;BME280;52445;52.466;-1.016;2023-08-24T12:14:06;99697.78;;;32.02;35.45
65718;BME280;52445;52.466;-1.016;2023-08-24T12:16:36;99697.41;;;31.97;35.90
65718;BME280;52445;52.466;-1.016;2023-08-24T12:19:07;99688.00;;;31.93;35.56
65718;BME280;52445;52.466;-1.016;2023-08-24T12:21:34;99685.38;;;32.01;35.33
65718;BME280;52445;52.466;-1.016;2023-08-24T12:24:02;99670.84;;;32.22;35.83
65718;BME280;52445;52.466;-1.016;2023-08-24T12:26:33;99680.00;;;32.38;35.27
65718;BME280;52445;52.466;-1.016;2023-08-24T12:29:03;99679.69;;;32.41;36.07
65718;BME280;52445;52.466;-1.016;2023-08-24T12:31:30;99668.88;;;32.69;35.05
65718;BME280;52445;52.466;-1.016;2023-08-24T12:34:00;99656.47;;;32.76;34.93
65718;BME280;52445;52.466;-1.016;2023-08-24T12:36:27;99645.50;;;32.61;34.41
65718;BME280;52445;52.466;-1.016;2023-08-24T12:38:54;99642.50;;;32.38;34.74
65718;BME280;52445;52.466;-1.016;2023-08-24T12:41:22;99640.38;;;32.23;34.61
65718;BME280;52445;52.466;-1.016;2023-08-24T12:43:50;99647.72;;;32.21;35.08
65718;BME280;52445;52.466;-1.016;2023-08-24T12:46:17;99648.13;;;32.08;34.72
65718;BME280;52445;52.466;-1.016;2023-08-24T12:48:44;99654.88;;;31.94;34.21
65718;BME280;52445;52.466;-1.016;2023-08-24T12:51:11;99648.03;;;31.81;35.01
65718;BME280;52445;52.466;-1.016;2023-08-24T12:53:38;99643.06;;;31.68;34.66
65718;BME280;52445;52.466;-1.016;2023-08-24T12:56:05;99645.88;;;31.67;35.28
65718;BME280;52445;52.466;-1.016;2023-08-24T12:58:31;99653.59;;;31.70;35.22
65718;BME280;52445;52.466;-1.016;2023-08-24T13:00:59;99643.81;;;31.79;35.47
65718;BME280;52445;52.466;-1.016;2023-08-24T13:03:26;99658.13;;;31.88;34.89
65718;BME280;52445;52.466;-1.016;2023-08-24T13:05:53;99647.72;;;31.85;35.16
65718;BME280;52445;52.466;-1.016;2023-08-24T13:08:24;99645.72;;;31.87;35.39
65718;BME280;52445;52.466;-1.016;2023-08-24T13:10:52;99637.03;;;31.85;35.12
65718;BME280;52445;52.466;-1.016;2023-08-24T13:13:18;99635.44;;;31.92;35.57